sensor_id;sensor_type;location;lat;lon;timestamp;P1;durP1;ratioP1;P2;durP2;ratioP2
6282;SDS011;3174;53.486;9.568;2023-08-06T00:01:03;1.30;;;0.87;;
6282;SDS011;3174;53.486;9.568;2023-08-06T00:03:32;1.30;;;1.20;;
6282;SDS011;3174;53.486;9.568;2023-08-06T00:06:01;0.97;;;0.87;;
6282;SDS011;3174;53.486;9.568;2023-08-06T00:08:29;1.37;;;0.97;;
6282;SDS011;3174;53.486;9.568;2023-08-06T00:10:57;1.37;;;1.10;;
6282;SDS011;3174;53.486;9.568;2023-08-06T00:13:25;1.00;;;0.80;;
6282;SDS011;3174;53.486;9.568;2023-08-06T00:15:53;1.00;;;0.80;;
6282;SDS011;3174;53.486;9.568;2023-08-06T00:18:21;1.10;;;1.00;;
6282;SDS011;3174;53.486;9.568;2023-08-06T00:20:49;0.90;;;0.70;;
6282;SDS011;3174;53.486;9.568;2023-08-06T00:23:18;1.30;;;0.97;;
6282;SDS011;3174;53.486;9.568;2023-08-06T00:25:48;1.30;;;0.97;;
6282;SDS011;3174;53.486;9.568;2023-08-06T00:28:16;1.40;;;0.93;;
6282;SDS011;3174;53.486;9.568;2023-08-06T00:30:44;2.03;;;1.03;;
6282;SDS011;3174;53.486;9.568;2023-08-06T00:33:12;0.73;;;0.73;;
6282;SDS011;3174;53.486;9.568;2023-08-06T00:35:40;1.10;;;0.80;;
6282;SDS011;3174;53.486;9.568;2023-08-06T00:38:08;1.17;;;1.00;;
6282;SDS011;3174;53.486;9.568;2023-08-06T00:40:38;1.70;;;1.10;;
6282;SDS011;3174;53.486;9.568;2023-08-06T00:43:06;1.47;;;1.00;;
6282;SDS011;3174;53.486;9.568;2023-08-06T00:45:34;0.67;;;0.67;;
6282;SDS011;3174;53.486;9.568;2023-08-06T00:48:02;0.90;;;0.87;;
6282;SDS011;3174;53.486;9.568;2023-08-06T00:50:32;0.77;;;0.73;;
6282;SDS011;3174;53.486;9.568;2023-08-06T00:53:00;1.53;;;1.00;;
6282;SDS011;3174;53.486;9.568;2023-08-06T00:55:28;0.90;;;0.90;;
6282;SDS011;3174;53.486;9.568;2023-08-06T00:57:58;1.00;;;0.90;;
6282;SDS011;3174;53.486;9.568;2023-08-06T01:00:26;2.00;;;0.83;;
6282;SDS011;3174;53.486;9.568;2023-08-06T01:02:54;1.07;;;0.90;;
6282;SDS011;3174;53.486;9.568;2023-08-06T01:05:22;0.70;;;0.70;;
6282;SDS011;3174;53.486;9.568;2023-08-06T01:07:55;1.10;;;0.90;;
6282;SDS011;3174;53.486;9.568;2023-08-06T01:10:33;1.73;;;1.00;;
6282;SDS011;3174;53.486;9.568;2023-08-06T01:13:11;0.80;;;0.80;;
6282;SDS011;3174;53.486;9.568;2023-08-06T01:15:45;1.07;;;0.97;;
6282;SDS011;3174;53.486;9.568;2023-08-06T01:18:14;0.80;;;0.80;;
6282;SDS011;3174;53.486;9.568;2023-08-06T01:20:44;0.93;;;0.83;;
6282;SDS011;3174;53.486;9.568;2023-08-06T01:23:12;0.90;;;0.90;;
6282;SDS011;3174;53.486;9.568;2023-08-06T01:25:42;2.50;;;1.20;;
6282;SDS011;3174;53.486;9.568;2023-08-06T01:28:15;1.17;;;1.07;;
6282;SDS011;3174;53.486;9.568;2023-08-06T01:30:48;1.17;;;1.00;;
6282;SDS011;3174;53.486;9.568;2023-08-06T01:33:19;1.20;;;0.90;;
6282;SDS011;3174;53.486;9.568;2023-08-06T01:35:50;0.90;;;0.80;;
6282;SDS011;3174;53.486;9.568;2023-08-06T01:38:19;1.17;;;0.90;;
6282;SDS011;3174;53.486;9.568;2023-08-06T01:40:47;1.97;;;0.87;;
6282;SDS011;3174;53.486;9.568;2023-08-06T01:43:15;2.43;;;1.03;;
6282;SDS011;3174;53.486;9.568;2023-08-06T01:45:43;1.20;;;0.90;;
6282;SDS011;3174;53.486;9.568;2023-08-06T01:48:11;1.40;;;0.90;;
6282;SDS011;3174;53.486;9.568;2023-08-06T01:50:39;0.93;;;0.83;;
6282;SDS011;3174;53.486;9.568;2023-08-06T01:53:08;1.00;;;0.90;;
6282;SDS011;3174;53.486;9.568;2023-08-06T01:55:36;1.27;;;0.90;;
6282;SDS011;3174;53.486;9.568;2023-08-06T01:58:04;0.87;;;0.80;;
6282;SDS011;3174;53.486;9.568;2023-08-06T02:00:32;1.83;;;1.20;;
6282;SDS011;3174;53.486;9.568;2023-08-06T02:03:00;1.10;;;1.00;;
6282;SDS011;3174;53.486;9.568;2023-08-06T02:05:28;1.20;;;1.00;;
6282;SDS011;3174;53.486;9.568;2023-08-06T02:07:56;1.93;;;0.80;;
6282;SDS011;3174;53.486;9.568;2023-08-06T02:10:25;1.03;;;0.97;;
6282;SDS011;3174;53.486;9.568;2023-08-06T02:12:53;1.20;;;0.90;;
6282;SDS011;3174;53.486;9.568;2023-08-06T02:15:21;1.53;;;1.23;;
6282;SDS011;3174;53.486;9.568;2023-08-06T02:17:49;2.30;;;1.63;;
6282;SDS011;3174;53.486;9.568;2023-08-06T02:20:17;2.27;;;1.20;;
6282;SDS011;3174;53.486;9.568;2023-08-06T02:22:45;2.63;;;1.10;;
6282;SDS011;3174;53.486;9.568;2023-08-06T02:25:13;2.90;;;1.90;;
6282;SDS011;3174;53.486;9.568;2023-08-06T02:27:43;2.70;;;1.10;;
6282;SDS011;3174;53.486;9.568;2023-08-06T02:30:11;1.93;;;0.97;;
6282;SDS011;3174;53.486;9.568;2023-08-06T02:32:38;0.90;;;0.90;;
6282;SDS011;3174;53.486;9.568;2023-08-06T02:35:07;1.67;;;1.07;;
6282;SDS011;3174;53.486;9.568;2023-08-06T02:37:35;1.80;;;1.37;;
6282;SDS011;3174;53.486;9.568;2023-08-06T02:40:03;1.57;;;0.90;;
6282;SDS011;3174;53.486;9.568;2023-08-06T02:42:32;1.53;;;1.20;;
6282;SDS011;3174;53.486;9.568;2023-08-06T02:45:01;1.40;;;1.00;;
6282;SDS011;3174;53.486;9.568;2023-08-06T02:47:30;2.00;;;1.10;;
6282;SDS011;3174;53.486;9.568;2023-08-06T02:49:58;1.20;;;1.00;;
6282;SDS011;3174;53.486;9.568;2023-08-06T02:52:26;1.40;;;1.00;;
6282;SDS011;3174;53.486;9.568;2023-08-06T02:54:54;1.20;;;1.10;;
6282;SDS011;3174;53.486;9.568;2023-08-06T02:57:22;1.33;;;1.10;;
6282;SDS011;3174;53.486;9.568;2023-08-06T02:59:50;1.13;;;1.00;;
6282;SDS011;3174;53.486;9.568;2023-08-06T03:02:19;1.30;;;0.87;;
6282;SDS011;3174;53.486;9.568;2023-08-06T03:04:47;1.30;;;1.00;;
6282;SDS011;3174;53.486;9.568;2023-08-06T03:07:15;1.00;;;0.90;;
6282;SDS011;3174;53.486;9.568;2023-08-06T03:09:43;1.30;;;1.10;;
6282;SDS011;3174;53.486;9.568;2023-08-06T03:12:11;1.87;;;0.97;;
6282;SDS011;3174;53.486;9.568;2023-08-06T03:14:39;1.03;;;0.90;;
6282;SDS011;3174;53.486;9.568;2023-08-06T03:17:07;1.50;;;1.00;;
6282;SDS011;3174;53.486;9.568;2023-08-06T03:19:37;3.03;;;1.47;;
6282;SDS011;3174;53.486;9.568;2023-08-06T03:22:05;1.13;;;0.80;;
6282;SDS011;3174;53.486;9.568;2023-08-06T03:24:33;2.23;;;1.10;;
6282;SDS011;3174;53.486;9.568;2023-08-06T03:27:01;1.10;;;1.00;;
6282;SDS011;3174;53.486;9.568;2023-08-06T03:29:29;1.60;;;1.40;;
6282;SDS011;3174;53.486;9.568;2023-08-06T03:31:58;1.80;;;1.20;;
6282;SDS011;3174;53.486;9.568;2023-08-06T03:34:25;1.67;;;1.30;;
6282;SDS011;3174;53.486;9.568;2023-08-06T03:36:55;1.70;;;1.10;;
6282;SDS011;3174;53.486;9.568;2023-08-06T03:39:23;2.30;;;1.40;;
6282;SDS011;3174;53.486;9.568;2023-08-06T03:41:51;2.13;;;1.10;;
6282;SDS011;3174;53.486;9.568;2023-08-06T03:44:19;1.63;;;1.30;;
6282;SDS011;3174;53.486;9.568;2023-08-06T03:46:47;2.23;;;1.03;;
6282;SDS011;3174;53.486;9.568;2023-08-06T03:49:15;1.20;;;0.90;;
6282;SDS011;3174;53.486;9.568;2023-08-06T03:51:43;3.27;;;1.10;;
6282;SDS011;3174;53.486;9.568;2023-08-06T03:54:12;1.30;;;0.97;;
6282;SDS011;3174;53.486;9.568;2023-08-06T03:56:40;1.77;;;1.23;;
6282;SDS011;3174;53.486;9.568;2023-08-06T03:59:08;1.57;;;1.20;;
6282;SDS011;3174;53.486;9.568;2023-08-06T04:01:36;1.87;;;1.10;;
6282;SDS011;3174;53.486;9.568;2023-08-06T04:04:04;1.63;;;1.00;;
6282;SDS011;3174;53.486;9.568;2023-08-06T04:06:32;2.13;;;1.20;;
6282;SDS011;3174;53.486;9.568;2023-08-06T04:09:00;2.10;;;1.40;;
6282;SDS011;3174;53.486;9.568;2023-08-06T04:11:30;2.67;;;1.30;;
6282;SDS011;3174;53.486;9.568;2023-08-06T04:13:58;1.10;;;1.00;;
6282;SDS011;3174;53.486;9.568;2023-08-06T04:16:26;2.00;;;1.30;;
6282;SDS011;3174;53.486;9.568;2023-08-06T04:18:54;1.73;;;1.03;;
6282;SDS011;3174;53.486;9.568;2023-08-06T04:21:22;1.20;;;1.10;;
6282;SDS011;3174;53.486;9.568;2023-08-06T04:23:50;1.30;;;1.10;;
6282;SDS011;3174;53.486;9.568;2023-08-06T04:26:18;1.40;;;1.30;;
6282;SDS011;3174;53.486;9.568;2023-08-06T04:28:48;2.17;;;1.20;;
6282;SDS011;3174;53.486;9.568;2023-08-06T04:31:16;1.57;;;1.30;;
6282;SDS011;3174;53.486;9.568;2023-08-06T04:33:44;2.03;;;1.50;;
6282;SDS011;3174;53.486;9.568;2023-08-06T04:36:12;1.20;;;1.10;;
6282;SDS011;3174;53.486;9.568;2023-08-06T04:38:40;1.57;;;1.20;;
6282;SDS011;3174;53.486;9.568;2023-08-06T04:41:11;1.20;;;1.10;;
6282;SDS011;3174;53.486;9.568;2023-08-06T04:43:39;2.87;;;1.30;;
6282;SDS011;3174;53.486;9.568;2023-08-06T04:46:08;1.70;;;1.20;;
6282;SDS011;3174;53.486;9.568;2023-08-06T04:48:36;1.25;;;1.15;;
6282;SDS011;3174;53.486;9.568;2023-08-06T04:51:04;3.40;;;1.43;;
6282;SDS011;3174;53.486;9.568;2023-08-06T04:53:32;3.30;;;1.47;;
6282;SDS011;3174;53.486;9.568;2023-08-06T04:56:00;3.10;;;1.40;;
6282;SDS011;3174;53.486;9.568;2023-08-06T04:58:28;1.33;;;1.17;;
6282;SDS011;3174;53.486;9.568;2023-08-06T05:00:56;1.43;;;1.20;;
6282;SDS011;3174;53.486;9.568;2023-08-06T05:03:25;1.40;;;1.13;;
6282;SDS011;3174;53.486;9.568;2023-08-06T05:05:53;1.57;;;1.30;;
6282;SDS011;3174;53.486;9.568;2023-08-06T05:08:21;3.43;;;1.60;;
6282;SDS011;3174;53.486;9.568;2023-08-06T05:10:49;1.53;;;1.33;;
6282;SDS011;3174;53.486;9.568;2023-08-06T05:13:17;1.50;;;1.27;;
6282;SDS011;3174;53.486;9.568;2023-08-06T05:15:45;1.70;;;1.40;;
6282;SDS011;3174;53.486;9.568;2023-08-06T05:18:13;2.13;;;1.40;;
6282;SDS011;3174;53.486;9.568;2023-08-06T05:20:42;3.00;;;1.50;;
6282;SDS011;3174;53.486;9.568;2023-08-06T05:23:10;1.70;;;1.23;;
6282;SDS011;3174;53.486;9.568;2023-08-06T05:25:38;1.80;;;1.57;;
6282;SDS011;3174;53.486;9.568;2023-08-06T05:28:06;1.80;;;1.50;;
6282;SDS011;3174;53.486;9.568;2023-08-06T05:30:38;2.17;;;1.20;;
6282;SDS011;3174;53.486;9.568;2023-08-06T05:33:06;1.97;;;1.33;;
6282;SDS011;3174;53.486;9.568;2023-08-06T05:35:34;2.17;;;1.53;;
6282;SDS011;3174;53.486;9.568;2023-08-06T05:38:04;2.23;;;1.60;;
6282;SDS011;3174;53.486;9.568;2023-08-06T05:40:33;2.17;;;1.47;;
6282;SDS011;3174;53.486;9.568;2023-08-06T05:43:01;2.00;;;1.40;;
6282;SDS011;3174;53.486;9.568;2023-08-06T05:45:29;1.63;;;1.30;;
6282;SDS011;3174;53.486;9.568;2023-08-06T05:47:57;2.47;;;1.40;;
6282;SDS011;3174;53.486;9.568;2023-08-06T05:50:25;1.83;;;1.43;;
6282;SDS011;3174;53.486;9.568;2023-08-06T05:52:53;1.93;;;1.63;;
6282;SDS011;3174;53.486;9.568;2023-08-06T05:55:22;2.40;;;1.60;;
6282;SDS011;3174;53.486;9.568;2023-08-06T05:57:50;4.37;;;1.63;;
6282;SDS011;3174;53.486;9.568;2023-08-06T06:00:20;3.10;;;1.40;;
6282;SDS011;3174;53.486;9.568;2023-08-06T06:02:49;2.00;;;1.60;;
6282;SDS011;3174;53.486;9.568;2023-08-06T06:05:17;1.80;;;1.33;;
6282;SDS011;3174;53.486;9.568;2023-08-06T06:07:45;1.70;;;1.60;;
6282;SDS011;3174;53.486;9.568;2023-08-06T06:10:13;1.57;;;1.30;;
6282;SDS011;3174;53.486;9.568;2023-08-06T06:12:42;1.77;;;1.50;;
6282;SDS011;3174;53.486;9.568;2023-08-06T06:15:10;2.43;;;1.73;;
6282;SDS011;3174;53.486;9.568;2023-08-06T06:17:39;2.33;;;1.60;;
6282;SDS011;3174;53.486;9.568;2023-08-06T06:20:07;2.20;;;1.40;;
6282;SDS011;3174;53.486;9.568;2023-08-06T06:22:35;2.17;;;1.60;;
6282;SDS011;3174;53.486;9.568;2023-08-06T06:25:04;2.60;;;1.97;;
6282;SDS011;3174;53.486;9.568;2023-08-06T06:27:32;2.10;;;1.30;;
6282;SDS011;3174;53.486;9.568;2023-08-06T06:30:02;2.00;;;1.50;;
6282;SDS011;3174;53.486;9.568;2023-08-06T06:32:30;2.67;;;1.53;;
6282;SDS011;3174;53.486;9.568;2023-08-06T06:34:58;2.50;;;1.87;;
6282;SDS011;3174;53.486;9.568;2023-08-06T06:37:26;1.90;;;1.60;;
6282;SDS011;3174;53.486;9.568;2023-08-06T06:39:54;2.23;;;1.60;;
6282;SDS011;3174;53.486;9.568;2023-08-06T06:42:22;1.90;;;1.47;;
6282;SDS011;3174;53.486;9.568;2023-08-06T06:44:50;2.20;;;1.60;;
6282;SDS011;3174;53.486;9.568;2023-08-06T06:47:19;2.73;;;1.70;;
6282;SDS011;3174;53.486;9.568;2023-08-06T06:49:48;2.53;;;1.80;;
6282;SDS011;3174;53.486;9.568;2023-08-06T06:52:16;2.13;;;1.80;;
6282;SDS011;3174;53.486;9.568;2023-08-06T06:54:44;4.13;;;1.87;;
6282;SDS011;3174;53.486;9.568;2023-08-06T06:57:12;2.10;;;1.80;;
6282;SDS011;3174;53.486;9.568;2023-08-06T06:59:40;2.80;;;1.70;;
6282;SDS011;3174;53.486;9.568;2023-08-06T07:02:08;1.87;;;1.57;;
6282;SDS011;3174;53.486;9.568;2023-08-06T07:04:37;2.90;;;1.77;;
6282;SDS011;3174;53.486;9.568;2023-08-06T07:07:05;2.23;;;1.60;;
6282;SDS011;3174;53.486;9.568;2023-08-06T07:09:33;3.17;;;1.73;;
6282;SDS011;3174;53.486;9.568;2023-08-06T07:12:01;1.90;;;1.70;;
6282;SDS011;3174;53.486;9.568;2023-08-06T07:14:29;4.20;;;1.70;;
6282;SDS011;3174;53.486;9.568;2023-08-06T07:16:57;3.37;;;2.40;;
6282;SDS011;3174;53.486;9.568;2023-08-06T07:19:25;3.27;;;2.50;;
6282;SDS011;3174;53.486;9.568;2023-08-06T07:21:55;4.60;;;2.00;;
6282;SDS011;3174;53.486;9.568;2023-08-06T07:24:23;6.70;;;2.87;;
6282;SDS011;3174;53.486;9.568;2023-08-06T07:26:51;3.80;;;2.93;;
6282;SDS011;3174;53.486;9.568;2023-08-06T07:29:19;2.80;;;1.80;;
6282;SDS011;3174;53.486;9.568;2023-08-06T07:31:48;5.70;;;3.23;;
6282;SDS011;3174;53.486;9.568;2023-08-06T07:34:17;3.40;;;2.40;;
6282;SDS011;3174;53.486;9.568;2023-08-06T07:36:45;2.77;;;1.83;;
6282;SDS011;3174;53.486;9.568;2023-08-06T07:39:15;5.57;;;2.50;;
6282;SDS011;3174;53.486;9.568;2023-08-06T07:41:43;3.57;;;2.60;;
6282;SDS011;3174;53.486;9.568;2023-08-06T07:44:12;6.27;;;2.53;;
6282;SDS011;3174;53.486;9.568;2023-08-06T07:46:40;2.17;;;1.80;;
6282;SDS011;3174;53.486;9.568;2023-08-06T07:49:08;2.40;;;1.83;;
6282;SDS011;3174;53.486;9.568;2023-08-06T07:51:37;3.97;;;2.63;;
6282;SDS011;3174;53.486;9.568;2023-08-06T07:54:05;5.23;;;2.50;;
6282;SDS011;3174;53.486;9.568;2023-08-06T07:56:35;4.30;;;2.10;;
6282;SDS011;3174;53.486;9.568;2023-08-06T07:59:03;2.03;;;1.80;;
6282;SDS011;3174;53.486;9.568;2023-08-06T08:01:31;2.90;;;2.07;;
6282;SDS011;3174;53.486;9.568;2023-08-06T08:03:59;3.60;;;2.07;;
6282;SDS011;3174;53.486;9.568;2023-08-06T08:06:27;4.13;;;2.00;;
6282;SDS011;3174;53.486;9.568;2023-08-06T08:08:55;2.73;;;1.57;;
6282;SDS011;3174;53.486;9.568;2023-08-06T08:11:23;1.90;;;1.50;;
6282;SDS011;3174;53.486;9.568;2023-08-06T08:13:52;2.17;;;1.67;;
6282;SDS011;3174;53.486;9.568;2023-08-06T08:16:20;2.77;;;1.87;;
6282;SDS011;3174;53.486;9.568;2023-08-06T08:18:49;3.53;;;2.10;;
6282;SDS011;3174;53.486;9.568;2023-08-06T08:21:16;2.17;;;1.70;;
6282;SDS011;3174;53.486;9.568;2023-08-06T08:23:45;4.97;;;2.40;;
6282;SDS011;3174;53.486;9.568;2023-08-06T08:26:13;3.17;;;2.10;;
6282;SDS011;3174;53.486;9.568;2023-08-06T08:28:41;2.80;;;1.97;;
6282;SDS011;3174;53.486;9.568;2023-08-06T08:31:10;2.40;;;1.73;;
6282;SDS011;3174;53.486;9.568;2023-08-06T08:33:38;3.60;;;1.70;;
6282;SDS011;3174;53.486;9.568;2023-08-06T08:36:06;3.43;;;1.70;;
6282;SDS011;3174;53.486;9.568;2023-08-06T08:38:36;2.03;;;1.63;;
6282;SDS011;3174;53.486;9.568;2023-08-06T08:41:04;3.83;;;1.83;;
6282;SDS011;3174;53.486;9.568;2023-08-06T08:43:32;2.17;;;1.77;;
6282;SDS011;3174;53.486;9.568;2023-08-06T08:46:00;3.17;;;1.80;;
6282;SDS011;3174;53.486;9.568;2023-08-06T08:48:31;2.00;;;1.80;;
6282;SDS011;3174;53.486;9.568;2023-08-06T08:50:59;2.07;;;1.73;;
6282;SDS011;3174;53.486;9.568;2023-08-06T08:53:27;1.63;;;1.50;;
6282;SDS011;3174;53.486;9.568;2023-08-06T08:55:55;1.53;;;1.43;;
6282;SDS011;3174;53.486;9.568;2023-08-06T08:58:23;3.13;;;1.93;;
6282;SDS011;3174;53.486;9.568;2023-08-06T09:00:51;3.13;;;2.07;;
6282;SDS011;3174;53.486;9.568;2023-08-06T09:03:19;2.60;;;1.63;;
6282;SDS011;3174;53.486;9.568;2023-08-06T09:05:49;2.60;;;1.90;;
6282;SDS011;3174;53.486;9.568;2023-08-06T09:08:21;3.53;;;2.07;;
6282;SDS011;3174;53.486;9.568;2023-08-06T09:10:54;2.40;;;1.73;;
6282;SDS011;3174;53.486;9.568;2023-08-06T09:13:22;1.93;;;1.73;;
6282;SDS011;3174;53.486;9.568;2023-08-06T09:15:50;1.73;;;1.60;;
6282;SDS011;3174;53.486;9.568;2023-08-06T09:18:24;2.30;;;1.80;;
6282;SDS011;3174;53.486;9.568;2023-08-06T09:20:55;2.43;;;1.93;;
6282;SDS011;3174;53.486;9.568;2023-08-06T09:23:27;1.70;;;1.60;;
6282;SDS011;3174;53.486;9.568;2023-08-06T09:25:56;3.20;;;1.70;;
6282;SDS011;3174;53.486;9.568;2023-08-06T09:28:24;2.10;;;1.77;;
6282;SDS011;3174;53.486;9.568;2023-08-06T09:30:53;2.00;;;1.67;;
6282;SDS011;3174;53.486;9.568;2023-08-06T09:33:22;2.30;;;1.77;;
6282;SDS011;3174;53.486;9.568;2023-08-06T09:35:50;3.90;;;2.10;;
6282;SDS011;3174;53.486;9.568;2023-08-06T09:38:21;4.20;;;1.80;;
6282;SDS011;3174;53.486;9.568;2023-08-06T09:40:49;2.73;;;1.77;;
6282;SDS011;3174;53.486;9.568;2023-08-06T09:43:18;2.13;;;1.70;;
6282;SDS011;3174;53.486;9.568;2023-08-06T09:45:46;2.23;;;1.70;;
6282;SDS011;3174;53.486;9.568;2023-08-06T09:48:15;2.30;;;1.80;;
6282;SDS011;3174;53.486;9.568;2023-08-06T09:50:42;3.63;;;1.80;;
6282;SDS011;3174;53.486;9.568;2023-08-06T09:53:11;2.50;;;1.83;;
6282;SDS011;3174;53.486;9.568;2023-08-06T09:55:41;2.63;;;1.80;;
6282;SDS011;3174;53.486;9.568;2023-08-06T09:58:10;1.87;;;1.60;;
6282;SDS011;3174;53.486;9.568;2023-08-06T10:00:38;2.30;;;1.90;;
6282;SDS011;3174;53.486;9.568;2023-08-06T10:03:06;3.60;;;1.97;;
6282;SDS011;3174;53.486;9.568;2023-08-06T10:05:34;3.27;;;2.60;;
6282;SDS011;3174;53.486;9.568;2023-08-06T10:08:03;2.83;;;2.03;;
6282;SDS011;3174;53.486;9.568;2023-08-06T10:10:32;3.80;;;1.97;;
6282;SDS011;3174;53.486;9.568;2023-08-06T10:13:01;2.43;;;1.80;;
6282;SDS011;3174;53.486;9.568;2023-08-06T10:15:31;2.27;;;1.90;;
6282;SDS011;3174;53.486;9.568;2023-08-06T10:17:59;2.10;;;1.80;;
6282;SDS011;3174;53.486;9.568;2023-08-06T10:20:32;3.87;;;1.90;;
6282;SDS011;3174;53.486;9.568;2023-08-06T10:23:01;2.47;;;1.87;;
6282;SDS011;3174;53.486;9.568;2023-08-06T10:25:30;2.20;;;1.90;;
6282;SDS011;3174;53.486;9.568;2023-08-06T10:28:00;2.53;;;2.00;;
6282;SDS011;3174;53.486;9.568;2023-08-06T10:30:30;3.10;;;2.00;;
6282;SDS011;3174;53.486;9.568;2023-08-06T10:32:59;3.07;;;2.10;;
6282;SDS011;3174;53.486;9.568;2023-08-06T10:35:29;2.80;;;1.97;;
6282;SDS011;3174;53.486;9.568;2023-08-06T10:37:58;2.83;;;1.97;;
6282;SDS011;3174;53.486;9.568;2023-08-06T10:40:27;3.10;;;2.23;;
6282;SDS011;3174;53.486;9.568;2023-08-06T10:42:58;2.60;;;1.97;;
6282;SDS011;3174;53.486;9.568;2023-08-06T10:45:27;2.27;;;1.90;;
6282;SDS011;3174;53.486;9.568;2023-08-06T10:47:58;2.20;;;2.00;;
6282;SDS011;3174;53.486;9.568;2023-08-06T10:50:27;3.10;;;2.30;;
6282;SDS011;3174;53.486;9.568;2023-08-06T10:52:55;2.57;;;2.20;;
6282;SDS011;3174;53.486;9.568;2023-08-06T10:55:23;3.83;;;2.00;;
6282;SDS011;3174;53.486;9.568;2023-08-06T10:57:52;4.73;;;2.20;;
6282;SDS011;3174;53.486;9.568;2023-08-06T11:00:21;3.80;;;1.80;;
6282;SDS011;3174;53.486;9.568;2023-08-06T11:02:51;2.33;;;1.90;;
6282;SDS011;3174;53.486;9.568;2023-08-06T11:05:21;2.57;;;2.00;;
6282;SDS011;3174;53.486;9.568;2023-08-06T11:07:49;2.73;;;2.13;;
6282;SDS011;3174;53.486;9.568;2023-08-06T11:10:19;2.20;;;1.90;;
6282;SDS011;3174;53.486;9.568;2023-08-06T11:12:52;2.63;;;1.90;;
6282;SDS011;3174;53.486;9.568;2023-08-06T11:15:23;3.07;;;2.20;;
6282;SDS011;3174;53.486;9.568;2023-08-06T11:17:53;5.07;;;2.20;;
6282;SDS011;3174;53.486;9.568;2023-08-06T11:20:21;3.20;;;2.00;;
6282;SDS011;3174;53.486;9.568;2023-08-06T11:22:49;3.47;;;2.17;;
6282;SDS011;3174;53.486;9.568;2023-08-06T11:25:20;3.53;;;2.43;;
6282;SDS011;3174;53.486;9.568;2023-08-06T11:27:48;2.57;;;2.13;;
6282;SDS011;3174;53.486;9.568;2023-08-06T11:30:16;2.00;;;1.80;;
6282;SDS011;3174;53.486;9.568;2023-08-06T11:32:44;2.63;;;1.93;;
6282;SDS011;3174;53.486;9.568;2023-08-06T11:35:15;2.97;;;2.00;;
6282;SDS011;3174;53.486;9.568;2023-08-06T11:37:44;2.27;;;2.07;;
6282;SDS011;3174;53.486;9.568;2023-08-06T11:40:13;2.90;;;2.00;;
6282;SDS011;3174;53.486;9.568;2023-08-06T11:42:42;3.13;;;2.00;;
6282;SDS011;3174;53.486;9.568;2023-08-06T11:45:10;2.37;;;1.87;;
6282;SDS011;3174;53.486;9.568;2023-08-06T11:47:38;3.30;;;2.10;;
6282;SDS011;3174;53.486;9.568;2023-08-06T11:50:07;2.80;;;1.70;;
6282;SDS011;3174;53.486;9.568;2023-08-06T11:52:38;6.37;;;2.30;;
6282;SDS011;3174;53.486;9.568;2023-08-06T11:55:09;1.83;;;1.70;;
6282;SDS011;3174;53.486;9.568;2023-08-06T11:57:37;2.07;;;1.87;;
6282;SDS011;3174;53.486;9.568;2023-08-06T12:00:07;3.23;;;2.00;;
6282;SDS011;3174;53.486;9.568;2023-08-06T12:02:36;2.67;;;2.30;;
6282;SDS011;3174;53.486;9.568;2023-08-06T12:05:11;2.97;;;2.20;;
6282;SDS011;3174;53.486;9.568;2023-08-06T12:07:41;3.40;;;2.20;;
6282;SDS011;3174;53.486;9.568;2023-08-06T12:10:12;2.53;;;1.67;;
6282;SDS011;3174;53.486;9.568;2023-08-06T12:12:41;2.03;;;1.83;;
6282;SDS011;3174;53.486;9.568;2023-08-06T12:15:09;2.97;;;1.90;;
6282;SDS011;3174;53.486;9.568;2023-08-06T12:17:40;2.00;;;1.60;;
6282;SDS011;3174;53.486;9.568;2023-08-06T12:20:09;2.57;;;1.90;;
6282;SDS011;3174;53.486;9.568;2023-08-06T12:22:37;3.50;;;2.10;;
6282;SDS011;3174;53.486;9.568;2023-08-06T12:25:08;2.60;;;1.95;;
6282;SDS011;3174;53.486;9.568;2023-08-06T12:27:38;3.97;;;2.10;;
6282;SDS011;3174;53.486;9.568;2023-08-06T12:30:07;2.25;;;1.73;;
6282;SDS011;3174;53.486;9.568;2023-08-06T12:32:35;3.90;;;1.83;;
6282;SDS011;3174;53.486;9.568;2023-08-06T12:35:04;2.08;;;1.88;;
6282;SDS011;3174;53.486;9.568;2023-08-06T12:37:34;2.83;;;1.98;;
6282;SDS011;3174;53.486;9.568;2023-08-06T12:40:03;4.60;;;1.90;;
6282;SDS011;3174;53.486;9.568;2023-08-06T12:42:52;2.30;;;1.52;;
6282;SDS011;3174;53.486;9.568;2023-08-06T12:45:20;2.15;;;1.60;;
6282;SDS011;3174;53.486;9.568;2023-08-06T12:47:49;2.10;;;1.90;;
6282;SDS011;3174;53.486;9.568;2023-08-06T12:50:17;3.72;;;1.65;;
6282;SDS011;3174;53.486;9.568;2023-08-06T12:52:45;2.35;;;1.45;;
6282;SDS011;3174;53.486;9.568;2023-08-06T12:55:13;3.08;;;1.80;;
6282;SDS011;3174;53.486;9.568;2023-08-06T12:57:41;3.50;;;1.50;;
6282;SDS011;3174;53.486;9.568;2023-08-06T13:00:25;3.60;;;2.00;;
6282;SDS011;3174;53.486;9.568;2023-08-06T13:02:53;2.00;;;1.80;;
6282;SDS011;3174;53.486;9.568;2023-08-06T13:05:21;2.60;;;1.77;;
6282;SDS011;3174;53.486;9.568;2023-08-06T13:07:49;2.47;;;2.05;;
6282;SDS011;3174;53.486;9.568;2023-08-06T13:10:17;3.47;;;2.08;;
6282;SDS011;3174;53.486;9.568;2023-08-06T13:12:47;3.50;;;2.28;;
6282;SDS011;3174;53.486;9.568;2023-08-06T13:15:15;4.20;;;1.92;;
6282;SDS011;3174;53.486;9.568;2023-08-06T13:17:44;3.33;;;2.60;;
6282;SDS011;3174;53.486;9.568;2023-08-06T13:20:13;4.90;;;2.13;;
6282;SDS011;3174;53.486;9.568;2023-08-06T13:22:44;3.15;;;2.20;;
6282;SDS011;3174;53.486;9.568;2023-08-06T13:25:12;3.00;;;2.00;;
6282;SDS011;3174;53.486;9.568;2023-08-06T13:27:42;3.58;;;2.00;;
6282;SDS011;3174;53.486;9.568;2023-08-06T13:30:12;3.83;;;1.90;;
6282;SDS011;3174;53.486;9.568;2023-08-06T13:32:40;3.20;;;2.20;;
6282;SDS011;3174;53.486;9.568;2023-08-06T13:35:09;3.50;;;2.00;;
6282;SDS011;3174;53.486;9.568;2023-08-06T13:37:37;4.05;;;2.33;;
6282;SDS011;3174;53.486;9.568;2023-08-06T13:40:06;2.78;;;2.08;;
6282;SDS011;3174;53.486;9.568;2023-08-06T13:42:35;2.58;;;2.17;;
6282;SDS011;3174;53.486;9.568;2023-08-06T13:45:03;2.37;;;2.17;;
6282;SDS011;3174;53.486;9.568;2023-08-06T13:47:32;3.73;;;2.10;;
6282;SDS011;3174;53.486;9.568;2023-08-06T13:50:00;3.38;;;2.50;;
6282;SDS011;3174;53.486;9.568;2023-08-06T13:52:30;2.58;;;2.25;;
6282;SDS011;3174;53.486;9.568;2023-08-06T13:54:58;3.90;;;2.37;;
6282;SDS011;3174;53.486;9.568;2023-08-06T13:57:26;3.75;;;2.10;;
6282;SDS011;3174;53.486;9.568;2023-08-06T13:59:54;4.00;;;2.47;;
6282;SDS011;3174;53.486;9.568;2023-08-06T14:02:22;2.50;;;2.10;;
6282;SDS011;3174;53.486;9.568;2023-08-06T14:04:52;2.72;;;2.28;;
6282;SDS011;3174;53.486;9.568;2023-08-06T14:07:20;3.30;;;2.20;;
6282;SDS011;3174;53.486;9.568;2023-08-06T14:09:49;3.38;;;2.22;;
6282;SDS011;3174;53.486;9.568;2023-08-06T14:12:17;2.97;;;2.13;;
6282;SDS011;3174;53.486;9.568;2023-08-06T14:14:45;2.67;;;2.22;;
6282;SDS011;3174;53.486;9.568;2023-08-06T14:17:13;2.45;;;1.98;;
6282;SDS011;3174;53.486;9.568;2023-08-06T14:19:42;4.47;;;2.47;;
6282;SDS011;3174;53.486;9.568;2023-08-06T14:22:10;3.00;;;2.30;;
6282;SDS011;3174;53.486;9.568;2023-08-06T14:24:38;3.40;;;2.10;;
6282;SDS011;3174;53.486;9.568;2023-08-06T14:27:07;2.90;;;2.00;;
6282;SDS011;3174;53.486;9.568;2023-08-06T14:29:35;5.50;;;2.33;;
6282;SDS011;3174;53.486;9.568;2023-08-06T14:32:03;2.20;;;2.00;;
6282;SDS011;3174;53.486;9.568;2023-08-06T14:34:32;2.73;;;1.70;;
6282;SDS011;3174;53.486;9.568;2023-08-06T14:37:00;2.53;;;1.90;;
6282;SDS011;3174;53.486;9.568;2023-08-06T14:39:28;4.63;;;2.30;;
6282;SDS011;3174;53.486;9.568;2023-08-06T14:41:55;2.13;;;1.93;;
6282;SDS011;3174;53.486;9.568;2023-08-06T14:44:25;4.80;;;1.90;;
6282;SDS011;3174;53.486;9.568;2023-08-06T14:46:53;3.27;;;1.90;;
6282;SDS011;3174;53.486;9.568;2023-08-06T14:49:21;2.67;;;1.60;;
6282;SDS011;3174;53.486;9.568;2023-08-06T14:51:50;2.77;;;1.70;;
6282;SDS011;3174;53.486;9.568;2023-08-06T14:54:20;2.37;;;1.87;;
6282;SDS011;3174;53.486;9.568;2023-08-06T14:56:48;1.80;;;1.70;;
6282;SDS011;3174;53.486;9.568;2023-08-06T14:59:16;2.17;;;1.40;;
6282;SDS011;3174;53.486;9.568;2023-08-06T15:01:45;2.10;;;1.70;;
6282;SDS011;3174;53.486;9.568;2023-08-06T15:04:13;3.33;;;1.60;;
6282;SDS011;3174;53.486;9.568;2023-08-06T15:06:41;3.57;;;1.40;;
6282;SDS011;3174;53.486;9.568;2023-08-06T15:09:09;3.13;;;1.83;;
6282;SDS011;3174;53.486;9.568;2023-08-06T15:11:37;1.93;;;1.50;;
6282;SDS011;3174;53.486;9.568;2023-08-06T15:14:05;1.70;;;1.43;;
6282;SDS011;3174;53.486;9.568;2023-08-06T15:16:33;2.33;;;1.40;;
6282;SDS011;3174;53.486;9.568;2023-08-06T15:19:03;1.90;;;1.40;;
6282;SDS011;3174;53.486;9.568;2023-08-06T15:21:31;1.70;;;1.60;;
6282;SDS011;3174;53.486;9.568;2023-08-06T15:23:59;1.70;;;1.60;;